Time;durP1;ratioP1;P1;durP2;ratioP2;P2;SDS_P1;SDS_P2;PMS_P1;PMS_P2;Temp;Humidity;BMP_temperature;BMP_pressure;BME280_temperature;BME280_humidity;BME280_pressure;Samples;Min_cycle;Max_cycle;Signal;HPM_P1;HPM_P2
2023/10/20 00:00:20;;;;;;;201.27;4.50;;;;;;;9.99;100.00;90734.91;6313160;22;20367;-79
2023/10/20 00:02:46;;;;;;;44.70;1.98;;;;;;;9.89;100.00;90728.25;6284930;22;20011;-79
2023/10/20 00:05:13;;;;;;;202.55;4.57;;;;;;;9.71;100.00;90729.53;6312982;22;20042;-79
2023/10/20 00:07:39;;;;;;;58.83;2.40;;;;;;;9.58;100.00;90723.50;6284032;22;20006;-78
2023/10/20 00:10:08;;;;;;;141.50;3.83;;;;;;;9.48;100.00;90708.22;6286674;22;20019;-78
2023/10/20 00:12:35;;;;;;;1.45;0.90;;;;;;;9.45;100.00;90709.63;6314414;22;20003;-78
2023/10/20 00:15:01;;;;;;;1.85;1.10;;;;;;;9.44;100.00;90707.34;6315439;22;20395;-78
2023/10/20 00:17:27;;;;;;;2.65;1.10;;;;;;;9.45;100.00;90696.56;6315195;22;20011;-79
2023/10/20 00:19:53;;;;;;;0.98;0.95;;;;;;;9.45;100.00;90696.56;6316285;22;20384;-78
2023/10/20 00:22:19;;;;;;;2.60;1.05;;;;;;;9.46;100.00;90685.06;6315211;22;20403;-78
2023/10/20 00:24:45;;;;;;;1.00;0.90;;;;;;;9.51;100.00;90690.06;6316306;22;20035;-78
2023/10/20 00:27:14;;;;;;;0.93;0.80;;;;;;;9.48;100.00;90688.09;6288781;22;20014;-79
2023/10/20 00:29:40;;;;;;;1.90;1.10;;;;;;;9.58;100.00;90700.00;6315814;22;20031;-80
2023/10/20 00:32:07;;;;;;;1.13;0.73;;;;;;;9.56;100.00;90699.53;6315286;22;20318;-79
2023/10/20 00:34:32;;;;;;;1.00;0.90;;;;;;;9.66;100.00;90708.81;6287806;22;20017;-78
2023/10/20 00:36:58;;;;;;;113.88;3.47;;;;;;;9.61;100.00;90691.50;6286539;22;20019;-79
2023/10/20 00:39:24;;;;;;;1.00;0.90;;;;;;;9.55;100.00;90674.53;6315323;22;20018;-78
2023/10/20 00:41:49;;;;;;;1.35;1.00;;;;;;;9.49;100.00;90679.16;6315704;22;20022;-78
2023/10/20 00:44:15;;;;;;;0.95;0.85;;;;;;;9.51;100.00;90674.41;6288533;22;20088;-79
2023/10/20 00:46:44;;;;;;;2.38;0.75;;;;;;;9.51;100.00;90655.34;6286973;22;20104;-79
2023/10/20 00:49:11;;;;;;;0.80;0.70;;;;;;;9.53;100.00;90643.50;6287739;22;20031;-79
2023/10/20 00:51:38;;;;;;;2.42;1.00;;;;;;;9.56;100.00;90655.13;6315619;22;20030;-79
2023/10/20 00:54:05;;;;;;;1.60;0.80;;;;;;;9.61;100.00;90654.16;6288325;22;20011;-78
2023/10/20 00:56:32;;;;;;;1.30;0.80;;;;;;;9.61;100.00;90649.69;6315756;22;19999;-77
2023/10/20 00:58:59;;;;;;;0.80;0.80;;;;;;;9.58;100.00;90651.09;6289148;22;20349;-79
2023/10/20 01:01:24;;;;;;;0.82;0.73;;;;;;;9.67;100.00;90652.88;6315545;22;20429;-79
2023/10/20 01:03:50;;;;;;;0.88;0.80;;;;;;;9.68;100.00;90634.28;6288200;22;20068;-79
2023/10/20 01:06:16;;;;;;;0.77;0.77;;;;;;;9.72;100.00;90629.91;6285517;22;19999;-78
2023/10/20 01:08:43;;;;;;;0.88;0.80;;;;;;;9.69;100.00;90632.41;6314428;22;20039;-79
2023/10/20 01:11:09;;;;;;;0.60;0.60;;;;;;;9.67;100.00;90627.50;6314453;22;20026;-78
2023/10/20 01:13:36;;;;;;;0.88;0.88;;;;;;;9.67;100.00;90622.28;6287413;22;20011;-79
2023/10/20 01:16:03;;;;;;;1.02;0.80;;;;;;;9.65;100.00;90608.78;6313843;22;20007;-79
2023/10/20 01:18:29;;;;;;;0.60;0.60;;;;;;;9.67;100.00;90614.44;6315183;22;20011;-79
2023/10/20 01:20:54;;;;;;;1.00;0.90;;;;;;;9.67;100.00;90614.44;6314693;22;20395;-78
2023/10/20 01:23:20;;;;;;;0.73;0.73;;;;;;;9.68;100.00;90615.19;6288007;22;20494;-78
2023/10/20 01:25:46;;;;;;;1.05;0.80;;;;;;;9.66;100.00;90618.16;6315966;22;20337;-78
2023/10/20 01:28:13;;;;;;;1.35;0.85;;;;;;;9.67;100.00;90616.31;6315729;22;20042;-78
2023/10/20 01:30:38;;;;;;;0.88;0.75;;;;;;;9.70;100.00;90611.16;6287785;22;20006;-79
2023/10/20 01:33:04;;;;;;;1.40;0.90;;;;;;;9.71;100.00;90622.41;6314655;22;20349;-78
2023/10/20 01:35:30;;;;;;;1.20;0.80;;;;;;;9.72;100.00;90609.00;6288061;22;20019;-79
2023/10/20 01:37:55;;;;;;;0.82;0.80;;;;;;;9.72;100.00;90600.41;6315304;22;20015;-79
2023/10/20 01:40:21;;;;;;;0.75;0.75;;;;;;;9.72;100.00;90595.94;6286969;22;20014;-80
2023/10/20 01:42:47;;;;;;;1.58;1.08;;;;;;;9.72;100.00;90582.88;6315287;22;20034;-78
2023/10/20 01:45:13;;;;;;;2.00;0.70;;;;;;;9.72;100.00;90564.59;6314133;22;20073;-79
2023/10/20 01:47:38;;;;;;;2.33;0.90;;;;;;;9.74;100.00;90553.81;6285372;22;20090;-78
2023/10/20 01:50:07;;;;;;;1.00;0.80;;;;;;;9.74;100.00;90553.81;6314495;22;20045;-78
2023/10/20 01:52:32;;;;;;;1.35;0.80;;;;;;;9.78;100.00;90545.00;6289076;22;20035;-78
2023/10/20 01:54:58;;;;;;;2.10;0.88;;;;;;;9.79;100.00;90541.31;6315353;22;20060;-79
2023/10/20 01:57:24;;;;;;;2.17;0.90;;;;;;;9.78;100.00;90524.09;6314076;22;20011;-78
2023/10/20 01:59:50;;;;;;;1.08;0.90;;;;;;;9.78;100.00;90511.03;6286816;22;20015;-79
2023/10/20 02:02:16;;;;;;;1.20;0.95;;;;;;;9.79;100.00;90517.78;6285916;22;20045;-79
2023/10/20 02:04:41;;;;;;;0.90;0.85;;;;;;;9.81;100.00;90517.44;6285202;22;20015;-79
2023/10/20 02:07:08;;;;;;;1.08;0.80;;;;;;;9.84;100.00;90516.00;6284469;22;20015;-78
2023/10/20 02:09:34;;;;;;;0.95;0.70;;;;;;;9.84;100.00;90505.56;6315285;22;20063;-79
2023/10/20 02:11:59;;;;;;;0.80;0.80;;;;;;;9.84;100.00;90498.50;6314225;22;20015;-80
2023/10/20 02:14:25;;;;;;;1.05;0.75;;;;;;;9.86;100.00;90488.50;6313539;22;20021;-79
2023/10/20 02:16:52;;;;;;;0.60;0.60;;;;;;;9.86;100.00;90493.72;6313659;22;20007;-79
2023/10/20 02:19:17;;;;;;;1.48;0.95;;;;;;;9.87;100.00;90489.25;6284898;22;20007;-78
2023/10/20 02:21:43;;;;;;;1.52;0.88;;;;;;;9.88;100.00;90481.06;6284300;22;20352;-79
2023/10/20 02:24:09;;;;;;;0.82;0.80;;;;;;;9.90;100.00;90467.66;6285260;22;20444;-78
2023/10/20 02:26:35;;;;;;;1.13;0.68;;;;;;;9.91;100.00;90469.22;6287890;22;20022;-78
2023/10/20 02:29:01;;;;;;;0.77;0.77;;;;;;;9.94;100.00;90471.16;6260077;22;20011;-78
2023/10/20 02:31:26;;;;;;;0.80;0.80;;;;;;;9.95;100.00;90470.81;6263086;22;20011;-79
2023/10/20 02:33:52;;;;;;;1.00;0.70;;;;;;;9.96;100.00;90482.03;6289186;22;20103;-78
2023/10/20 02:36:22;;;;;;;1.23;0.90;;;;;;;10.14;100.00;90491.13;6289090;22;20027;-78
2023/10/20 02:38:51;;;;;;;2.95;0.90;;;;;;;10.08;100.00;90507.38;6289486;22;20011;-78
2023/10/20 02:41:17;;;;;;;8.90;0.95;;;;;;;9.97;100.00;90494.78;6317489;22;20011;-78
2023/10/20 02:43:43;;;;;;;1.27;1.00;;;;;;;9.91;100.00;90474.44;6290454;22;20037;-80
2023/10/20 02:46:11;;;;;;;0.90;0.85;;;;;;;9.86;100.00;90466.81;6288857;22;20019;-79
2023/10/20 02:48:37;;;;;;;0.88;0.88;;;;;;;9.84;100.00;90459.31;6315247;22;20090;-78
2023/10/20 02:51:14;;;;;;;0.90;0.90;;;;;;;9.87;100.00;90466.47;6289503;22;20356;-78
2023/10/20 02:53:40;;;;;;;1.92;1.10;;;;;;;9.89;100.00;90461.69;6289868;22;20041;-79
2023/10/20 02:56:13;;;;;;;0.90;0.80;;;;;;;9.88;100.00;90434.00;6291613;22;19999;-79
2023/10/20 02:58:44;;;;;;;1.27;1.00;;;;;;;9.89;100.00;90432.19;6318624;22;20045;-79
2023/10/20 03:01:13;;;;;;;1.33;1.10;;;;;;;9.86;100.00;90410.09;6265860;22;20576;-79
2023/10/20 03:03:39;;;;;;;1.20;0.80;;;;;;;9.90;100.00;90410.19;6289663;22;20103;-79
2023/10/20 03:06:06;;;;;;;1.45;0.90;;;;;;;9.89;100.00;90403.44;6316022;22;20019;-79
2023/10/20 03:08:34;;;;;;;1.17;0.98;;;;;;;9.88;100.00;90392.19;6286977;22;20011;-79
2023/10/20 03:11:00;;;;;;;0.98;0.80;;;;;;;9.90;100.00;90399.72;6289266;22;20065;-78
2023/10/20 03:13:26;;;;;;;0.90;0.82;;;;;;;9.89;100.00;90398.22;6316861;22;20387;-79
2023/10/20 03:15:53;;;;;;;1.10;0.93;;;;;;;9.88;100.00;90383.59;6288306;22;20444;-78
2023/10/20 03:18:20;;;;;;;0.82;0.80;;;;;;;9.89;100.00;90387.75;6289041;22;20011;-80
2023/10/20 03:20:50;;;;;;;1.55;0.90;;;;;;;9.90;100.00;90384.03;6287900;22;20451;-78
2023/10/20 03:23:18;;;;;;;3.28;1.20;;;;;;;9.91;100.00;90396.78;6314305;22;20018;-79
2023/10/20 03:25:44;;;;;;;1.08;0.93;;;;;;;9.92;100.00;90393.06;6314703;22;19999;-78
2023/10/20 03:28:09;;;;;;;1.35;0.80;;;;;;;9.91;100.00;90382.97;6313884;22;20011;-78
2023/10/20 03:30:41;;;;;;;0.80;0.80;;;;;;;9.92;100.00;90381.84;6287609;22;20026;-77
2023/10/20 03:33:13;;;;;;;1.13;1.00;;;;;;;9.93;100.00;90367.69;6315594;22;20053;-79
2023/10/20 03:35:38;;;;;;;1.20;0.90;;;;;;;9.98;100.00;90367.47;6315795;22;20002;-78
2023/10/20 03:38:06;;;;;;;94.35;2.67;;;;;;;9.98;100.00;90370.09;6316277;22;19999;-77
2023/10/20 03:40:36;;;;;;;4.25;1.02;;;;;;;9.96;100.00;90357.34;6315919;22;20030;-78
2023/10/20 03:43:06;;;;;;;2.15;1.10;;;;;;;9.97;100.00;90358.88;6313539;22;20106;-78
2023/10/20 03:45:41;;;;;;;1.75;1.00;;;;;;;10.00;100.00;90362.66;6285863;22;20030;-78
2023/10/20 03:48:10;;;;;;;1.55;0.90;;;;;;;9.99;100.00;90359.28;6312477;22;20482;-78
2023/10/20 03:50:41;;;;;;;322.63;7.78;;;;;;;10.24;100.00;90361.78;6312783;22;20467;-79
2023/10/20 03:53:07;;;;;;;0.80;0.70;;;;;;;10.05;100.00;90354.56;6286486;22;20042;-78
2023/10/20 03:55:36;;;;;;;0.80;0.80;;;;;;;10.02;100.00;90342.19;6314952;22;20019;-78
2023/10/20 03:58:02;;;;;;;2.35;0.88;;;;;;;10.04;100.00;90337.34;6287402;22;20030;-78
2023/10/20 04:00:28;;;;;;;0.90;0.73;;;;;;;10.07;100.00;90330.72;6314597;22;20329;-78
2023/10/20 04:02:55;;;;;;;1.00;0.75;;;;;;;10.09;100.00;90337.13;6315664;22;20018;-78
2023/10/20 04:05:21;;;;;;;1.13;0.70;;;;;;;10.09;100.00;90331.91;6288178;22;20498;-77
2023/10/20 04:07:47;;;;;;;0.73;0.73;;;;;;;10.11;100.00;90321.88;6315723;22;20086;-78
2023/10/20 04:10:14;;;;;;;1.15;0.88;;;;;;;10.14;100.00;90315.97;6315615;22;20073;-78
2023/10/20 04:12:41;;;;;;;2.10;0.73;;;;;;;10.14;100.00;90313.34;6314647;22;20005;-77
2023/10/20 04:15:25;;;;;;;2.80;0.90;;;;;;;10.15;100.00;90311.50;6286093;22;20049;-78
2023/10/20 04:17:55;;;;;;;2.80;0.90;;;;;;;10.17;100.00;90304.84;6314463;22;20021;-78
2023/10/20 04:20:23;;;;;;;1.40;1.20;;;;;;;10.19;100.00;90307.13;6287429;22;19995;-78
2023/10/20 04:22:49;;;;;;;1.08;0.95;;;;;;;10.24;100.00;90313.94;6287797;22;20034;-79
2023/10/20 04:25:20;;;;;;;0.60;0.60;;;;;;;10.39;100.00;90324.44;6315329;22;20021;-79
2023/10/20 04:54:24;;;;;;;0.63;0.60;;;;;;;10.20;100.00;90272.81;6305786;22;20019;-80
2023/10/20 04:59:44;;;;;;;1.07;0.97;;;;;;;10.17;100.00;90273.47;6268670;22;20456;-82
2023/10/20 05:02:23;;;;;;;0.80;0.80;;;;;;;10.18;100.00;90275.00;6275452;22;20311;-80
2023/10/20 05:04:51;;;;;;;1.27;1.05;;;;;;;10.19;100.00;90271.28;6304314;22;20037;-80
2023/10/20 05:07:21;;;;;;;1.65;1.30;;;;;;;10.15;100.00;90265.19;6302429;22;20015;-81
2023/10/20 05:09:54;;;;;;;1.77;1.20;;;;;;;10.17;100.00;90270.09;6279392;22;20037;-79
2023/10/20 05:12:20;;;;;;;4.82;1.30;;;;;;;10.16;100.00;90261.50;6277453;22;20015;-82
2023/10/20 05:14:49;;;;;;;1.35;0.90;;;;;;;10.17;100.00;90278.69;6306811;22;20011;-80
2023/10/20 05:17:17;;;;;;;1.58;1.20;;;;;;;10.16;100.00;90276.44;6305553;22;20022;-80
2023/10/20 05:19:49;;;;;;;1.75;1.30;;;;;;;10.17;100.00;90272.69;6280777;22;20015;-81
2023/10/20 05:22:15;;;;;;;1.77;1.20;;;;;;;10.18;100.00;90261.91;6279167;22;20015;-81
2023/10/20 05:28:47;;;;;;;1.05;0.90;;;;;;;10.18;100.00;90222.69;6310475;22;20053;-81
2023/10/20 05:31:13;;;;;;;1.73;0.90;;;;;;;10.20;100.00;90220.50;6310061;22;20011;-82
2023/10/20 05:33:38;;;;;;;0.70;0.70;;;;;;;10.19;100.00;90213.75;6282674;22;20003;-82
2023/10/20 05:36:19;;;;;;;0.70;0.70;;;;;;;10.25;100.00;90203.81;6281453;22;20015;-82
2023/10/20 05:38:45;;;;;;;0.70;0.70;;;;;;;10.25;100.00;90182.88;6308681;22;20011;-82
2023/10/20 05:41:13;;;;;;;0.88;0.88;;;;;;;10.53;100.00;90185.38;6308397;22;20439;-81
2023/10/20 05:43:41;;;;;;;2.08;0.90;;;;;;;10.60;100.00;90190.00;6282709;22;20095;-82
2023/10/20 05:46:37;;;;;;;1.20;0.95;;;;;;;10.63;100.00;90186.75;6311441;22;20021;-80
2023/10/20 05:49:03;;;;;;;1.00;1.00;;;;;;;10.69;100.00;90166.28;6310417;22;20049;-82
2023/10/20 05:51:39;;;;;;;1.35;1.10;;;;;;;10.89;100.00;90148.75;6310183;22;20015;-81
2023/10/20 05:54:05;;;;;;;1.30;1.20;;;;;;;11.15;100.00;90161.22;6284107;22;20015;-80
2023/10/20 05:56:31;;;;;;;1.23;0.85;;;;;;;11.36;100.00;90161.59;6310716;22;20007;-80
2023/10/20 06:02:51;;;;;;;1.20;1.10;;;;;;;11.43;100.00;90164.34;6309270;22;20061;-81
2023/10/20 06:09:11;;;;;;;1.30;1.05;;;;;;;11.57;100.00;90157.84;6311476;22;20038;-82
2023/10/20 06:11:42;;;;;;;2.10;1.30;;;;;;;11.67;100.00;90154.66;6310912;22;20015;-80
2023/10/20 06:14:08;;;;;;;2.33;1.00;;;;;;;11.70;100.00;90155.81;6309809;22;20019;-82
2023/10/20 06:16:33;;;;;;;1.50;0.90;;;;;;;11.74;100.00;90140.91;6310151;22;19999;-82
2023/10/20 06:19:24;;;;;;;1.92;1.52;;;;;;;11.77;100.00;90151.44;6282403;22;20007;-81
2023/10/20 06:21:50;;;;;;;3.30;1.27;;;;;;;11.83;100.00;90136.19;6310123;22;20011;-81
2023/10/20 06:24:16;;;;;;;3.92;1.60;;;;;;;11.84;100.00;90112.25;6309415;22;20006;-82
2023/10/20 06:26:47;;;;;;;3.35;1.40;;;;;;;12.00;100.00;90140.22;6257640;22;20023;-82
2023/10/20 06:35:52;;;;;;;6.25;1.83;;;;;;;12.12;100.00;90121.69;6309798;22;20022;-81
2023/10/20 06:39:05;;;;;;;4.60;1.55;;;;;;;12.22;100.00;90157.03;6309558;22;20056;-81
2023/10/20 06:41:08;;;;;;;3.72;1.75;;;;;;;12.28;100.00;90122.28;6294586;22;20018;-79
2023/10/20 06:43:34;;;;;;;3.75;1.63;;;;;;;12.28;100.00;90147.78;6310236;22;20003;-82
2023/10/20 06:46:11;;;;;;;5.10;2.40;;;;;;;12.44;100.00;90168.63;6283786;22;20011;-82
2023/10/20 06:48:36;;;;;;;5.28;2.47;;;;;;;12.57;100.00;90146.31;6309686;22;20011;-81
2023/10/20 06:51:02;;;;;;;8.30;2.50;;;;;;;12.55;100.00;90142.53;6310454;22;20418;-81
2023/10/20 06:54:01;;;;;;;10.38;2.47;;;;;;;12.54;100.00;90211.84;6310266;22;20011;-80
2023/10/20 06:56:27;;;;;;;5.85;2.40;;;;;;;12.60;100.00;90155.34;6283160;22;20057;-82
2023/10/20 06:58:53;;;;;;;5.22;2.50;;;;;;;12.86;100.00;90115.19;6310068;22;20003;-81
2023/10/20 07:02:00;;;;;;;8.63;2.60;;;;;;;12.94;100.00;90101.00;6282368;22;20010;-81
2023/10/20 07:04:27;;;;;;;7.85;2.63;;;;;;;13.07;100.00;90154.06;6310060;22;20082;-80
2023/10/20 07:06:52;;;;;;;8.13;2.83;;;;;;;12.99;100.00;90144.56;6310048;22;20022;-83
2023/10/20 07:09:29;;;;;;;5.07;2.15;;;;;;;13.17;100.00;90165.78;6282544;22;20003;-83
2023/10/20 07:11:55;;;;;;;12.43;2.67;;;;;;;13.11;100.00;90183.75;6310120;22;20448;-83
2023/10/20 07:14:20;;;;;;;7.35;2.63;;;;;;;13.23;100.00;90174.88;6283701;22;20072;-82
2023/10/20 07:16:48;;;;;;;6.82;2.45;;;;;;;13.24;100.00;90187.66;6310401;22;20429;-82
2023/10/20 07:19:14;;;;;;;7.40;2.70;;;;;;;13.18;100.00;90183.06;6311649;22;20017;-82
2023/10/20 07:21:40;;;;;;;8.50;2.75;;;;;;;13.34;100.00;90178.41;6285000;22;20109;-82
2023/10/20 07:27:33;;;;;;;7.28;2.65;;;;;;;13.49;100.00;90182.72;6312021;22;20085;-84
2023/10/20 07:29:59;;;;;;;9.27;2.78;;;;;;;13.36;100.00;90220.84;6284859;22;20015;-83
2023/10/20 07:32:35;;;;;;;10.35;3.63;;;;;;;13.29;100.00;90211.00;6311183;22;20106;-83
2023/10/20 07:35:00;;;;;;;11.15;3.42;;;;;;;13.29;100.00;90213.63;6284053;22;20011;-83
2023/10/20 07:37:31;;;;;;;7.28;2.17;;;;;;;13.24;100.00;90227.06;6283541;22;20102;-83
2023/10/20 07:39:58;;;;;;;10.82;2.80;;;;;;;13.05;100.00;90216.69;6283960;22;20080;-82
2023/10/20 07:42:24;;;;;;;6.57;2.42;;;;;;;12.98;100.00;90213.97;6311702;22;20007;-84
2023/10/20 07:44:50;;;;;;;6.50;3.05;;;;;;;13.05;100.00;90212.19;6252891;22;20020;-83
2023/10/20 07:47:19;;;;;;;6.28;3.00;;;;;;;13.13;100.00;90211.16;6278636;22;20016;-82
2023/10/20 07:49:45;;;;;;;11.07;3.83;;;;;;;13.10;100.00;90184.84;6278029;22;20348;-81
2023/10/20 07:52:10;;;;;;;5.20;2.55;;;;;;;13.04;100.00;90183.66;6278265;22;20080;-83
2023/10/20 07:55:02;;;;;;;7.95;2.78;;;;;;;13.06;100.00;90144.66;6278032;22;20019;-83
2023/10/20 07:57:28;;;;;;;7.38;3.10;;;;;;;12.95;100.00;90149.78;6278500;22;20476;-82
2023/10/20 07:59:54;;;;;;;6.97;2.72;;;;;;;12.87;100.00;90145.56;6281090;22;20012;-83
2023/10/20 08:02:33;;;;;;;16.30;3.25;;;;;;;12.84;100.00;90144.41;6279039;22;20008;-83
2023/10/20 08:05:00;;;;;;;9.55;2.90;;;;;;;13.02;100.00;90128.88;6281955;22;20019;-83
2023/10/20 08:07:25;;;;;;;11.80;3.30;;;;;;;13.10;100.00;90080.56;6278514;22;20022;-83
2023/10/20 08:09:57;;;;;;;6.97;3.10;;;;;;;13.15;100.00;90168.00;6277941;22;20078;-81
2023/10/20 08:12:22;;;;;;;11.10;2.80;;;;;;;13.07;100.00;90133.78;6279456;22;20012;-81
2023/10/20 08:14:49;;;;;;;5.72;2.58;;;;;;;13.20;100.00;90172.97;6280600;22;20038;-79
2023/10/20 08:17:15;;;;;;;11.68;2.67;;;;;;;13.17;100.00;90150.03;6275435;22;20012;-82
2023/10/20 08:19:46;;;;;;;8.27;3.15;;;;;;;13.07;100.00;90139.03;6274985;22;20004;-82
2023/10/20 08:22:11;;;;;;;7.68;2.65;;;;;;;13.03;100.00;90106.72;6277275;22;19999;-82
2023/10/20 08:24:37;;;;;;;9.48;3.25;;;;;;;13.04;100.00;90145.03;6276041;22;20007;-84
2023/10/20 08:27:02;;;;;;;11.27;3.20;;;;;;;13.09;100.00;90100.06;6275266;22;20018;-83
2023/10/20 08:29:28;;;;;;;9.20;3.65;;;;;;;13.10;100.00;90151.47;6276352;22;20003;-84
2023/10/20 08:31:54;;;;;;;9.50;2.88;;;;;;;12.92;100.00;90140.00;6276251;22;20506;-82
2023/10/20 08:34:20;;;;;;;8.45;3.08;;;;;;;13.05;100.00;90128.13;6274927;22;20326;-83
2023/10/20 08:36:46;;;;;;;7.70;3.50;;;;;;;13.26;100.00;90095.34;6276070;22;20357;-83
2023/10/20 08:39:19;;;;;;;9.35;3.45;;;;;;;13.10;100.00;90134.94;6277401;22;20011;-83
2023/10/20 08:41:45;;;;;;;12.90;3.72;;;;;;;12.97;100.00;90134.44;6276554;22;20023;-83
2023/10/20 08:44:11;;;;;;;8.88;3.58;;;;;;;12.94;100.00;90116.75;6282569;22;20088;-82
2023/10/20 08:46:39;;;;;;;11.32;3.75;;;;;;;12.98;100.00;90111.56;6278585;22;20007;-83
2023/10/20 08:49:06;;;;;;;13.18;3.17;;;;;;;12.92;100.00;90108.47;6279390;22;20007;-81
2023/10/20 08:51:32;;;;;;;10.43;3.38;;;;;;;13.01;100.00;90047.81;6280435;22;20015;-80
2023/10/20 08:53:58;;;;;;;13.13;3.70;;;;;;;12.88;100.00;90112.94;6306870;22;20023;-81
2023/10/20 08:56:24;;;;;;;9.52;3.42;;;;;;;12.93;100.00;90144.13;6306433;22;20018;-81
2023/10/20 08:58:49;;;;;;;10.77;3.13;;;;;;;12.98;100.00;90051.16;6306490;22;20007;-81
2023/10/20 09:01:16;;;;;;;13.02;3.30;;;;;;;12.95;100.00;90041.34;6306827;22;20015;-81
2023/10/20 09:03:44;;;;;;;8.18;3.00;;;;;;;12.95;100.00;90086.78;6306347;22;20010;-82
2023/10/20 09:06:14;;;;;;;10.80;3.40;;;;;;;13.00;100.00;89970.91;6279978;22;20041;-82
2023/10/20 09:08:47;;;;;;;8.75;3.25;;;;;;;12.99;100.00;90108.59;6308195;22;20022;-82
2023/10/20 09:11:12;;;;;;;10.30;3.70;;;;;;;12.93;100.00;90104.00;6307166;22;20056;-82
2023/10/20 09:13:39;;;;;;;11.18;3.50;;;;;;;12.88;100.00;90084.06;6307279;22;20344;-82
2023/10/20 09:16:10;;;;;;;7.72;2.78;;;;;;;13.12;100.00;90153.72;6306821;22;20007;-82
2023/10/20 09:18:43;;;;;;;8.18;2.72;;;;;;;13.51;100.00;90069.34;6305808;22;20419;-79
2023/10/20 09:21:10;;;;;;;9.15;2.80;;;;;;;13.62;100.00;90074.69;6278099;22;20015;-79
2023/10/20 09:23:36;;;;;;;8.25;3.30;;;;;;;13.56;100.00;90044.59;6278543;22;20056;-81
2023/10/20 09:26:02;;;;;;;13.80;2.97;;;;;;;13.61;100.00;90102.09;6307616;22;20018;-80
2023/10/20 09:28:27;;;;;;;9.73;2.63;;;;;;;13.74;100.00;90088.31;6252846;22;20519;-80
2023/10/20 09:30:54;;;;;;;9.73;4.10;;;;;;;13.79;100.00;90078.59;6277916;22;20015;-80
2023/10/20 09:33:21;;;;;;;12.57;2.47;;;;;;;13.92;100.00;90041.13;6305695;22;20007;-79
2023/10/20 09:35:46;;;;;;;7.55;2.22;;;;;;;13.96;100.00;90054.31;6306203;22;20093;-79
2023/10/20 09:38:13;;;;;;;14.20;2.45;;;;;;;13.93;100.00;90105.00;6306139;22;20029;-80
2023/10/20 09:40:43;;;;;;;7.10;2.45;;;;;;;14.19;100.00;90098.06;6305378;22;20018;-80
2023/10/20 09:43:13;;;;;;;9.57;2.67;;;;;;;14.21;100.00;90087.88;6305672;22;20003;-79
2023/10/20 09:45:42;;;;;;;9.27;2.55;;;;;;;14.25;100.00;90065.00;6303506;22;20015;-79
2023/10/20 09:48:18;;;;;;;7.25;2.45;;;;;;;14.24;100.00;90064.25;6276825;22;20078;-78
2023/10/20 09:50:46;;;;;;;5.45;2.50;;;;;;;14.27;100.00;90074.03;6304710;22;20012;-80
2023/10/20 09:53:11;;;;;;;12.95;3.22;;;;;;;14.31;100.00;90066.16;6304825;22;20317;-80
2023/10/20 09:55:38;;;;;;;10.65;2.47;;;;;;;14.34;100.00;90082.00;6304463;22;20072;-80
2023/10/20 09:58:03;;;;;;;11.38;2.78;;;;;;;14.29;100.00;90113.88;6306230;22;20006;-81
2023/10/20 10:00:34;;;;;;;9.57;2.90;;;;;;;14.41;100.00;90093.66;6305659;22;20015;-81
2023/10/20 10:03:00;;;;;;;8.80;2.33;;;;;;;14.32;100.00;90057.91;6305584;22;20007;-79
2023/10/20 10:05:29;;;;;;;8.63;2.22;;;;;;;14.07;100.00;90101.69;6303543;22;20009;-79
2023/10/20 10:08:10;;;;;;;8.48;2.85;;;;;;;14.02;100.00;90115.19;6304234;22;20011;-80
2023/10/20 10:10:36;;;;;;;8.52;2.67;;;;;;;14.09;100.00;90087.06;6304844;22;20007;-80
2023/10/20 10:13:07;;;;;;;9.40;2.65;;;;;;;14.10;100.00;90109.63;6303870;22;20038;-80
2023/10/20 10:15:46;;;;;;;7.35;2.90;;;;;;;14.15;100.00;90090.13;6276589;22;20023;-79
2023/10/20 10:18:15;;;;;;;6.90;2.53;;;;;;;14.31;100.00;90101.13;6305611;22;20023;-80
2023/10/20 10:20:43;;;;;;;8.23;3.15;;;;;;;14.34;100.00;90097.78;6305886;22;20019;-81
2023/10/20 10:23:14;;;;;;;13.57;2.75;;;;;;;14.38;100.00;90124.84;6306913;22;20007;-79
2023/10/20 10:25:44;;;;;;;7.68;2.63;;;;;;;14.34;100.00;90123.31;6307082;22;20019;-80
2023/10/20 10:28:18;;;;;;;8.77;2.50;;;;;;;14.24;100.00;90124.75;6279637;22;20083;-80
2023/10/20 10:30:52;;;;;;;10.18;2.83;;;;;;;14.38;100.00;90116.22;6279904;22;20015;-80
2023/10/20 10:33:22;;;;;;;8.05;2.70;;;;;;;14.29;100.00;90113.16;6306985;22;20236;-81
2023/10/20 10:35:48;;;;;;;13.13;3.33;;;;;;;14.28;100.00;90122.91;6280542;22;20096;-80
2023/10/20 10:38:21;;;;;;;6.88;2.50;;;;;;;14.23;100.00;90117.22;6307228;22;19999;-80
2023/10/20 10:40:47;;;;;;;10.95;3.17;;;;;;;14.22;100.00;90161.22;6308670;22;20141;-81
2023/10/20 10:43:21;;;;;;;7.80;2.80;;;;;;;14.14;100.00;90118.31;6307711;22;20385;-81
2023/10/20 10:45:54;;;;;;;9.32;3.45;;;;;;;14.23;100.00;90133.78;6280242;22;20015;-77
2023/10/20 10:48:24;;;;;;;15.93;3.10;;;;;;;14.23;100.00;90123.25;6306714;22;20007;-79
2023/10/20 10:50:50;;;;;;;10.07;3.20;;;;;;;14.16;100.00;90081.09;6307704;22;20018;-82
2023/10/20 10:53:16;;;;;;;6.57;2.42;;;;;;;14.22;100.00;90139.41;6310391;22;20009;-82
2023/10/20 10:55:42;;;;;;;12.50;3.25;;;;;;;14.23;100.00;90122.50;6309194;22;20102;-82
2023/10/20 10:58:09;;;;;;;6.80;3.08;;;;;;;14.28;100.00;90093.97;6307671;22;20086;-82
2023/10/20 11:00:37;;;;;;;7.53;3.35;;;;;;;14.31;100.00;90114.28;6307247;22;20019;-81
2023/10/20 11:03:04;;;;;;;6.10;2.33;;;;;;;14.32;100.00;90089.50;6306497;22;19998;-81
2023/10/20 11:05:32;;;;;;;5.60;2.30;;;;;;;14.50;100.00;90104.63;6282113;22;20053;-81
2023/10/20 11:08:04;;;;;;;5.35;2.25;;;;;;;14.46;100.00;90119.66;6308160;22;19999;-82
2023/10/20 11:10:34;;;;;;;7.10;2.53;;;;;;;14.68;100.00;90112.66;6308448;22;20011;-77
2023/10/20 11:13:05;;;;;;;7.15;2.78;;;;;;;14.64;100.00;90109.25;6310296;22;20008;-81
2023/10/20 11:15:32;;;;;;;10.60;3.00;;;;;;;14.52;100.00;90110.28;6281980;22;20023;-81
2023/10/20 11:18:00;;;;;;;7.88;2.58;;;;;;;14.41;100.00;90112.09;6308270;22;20013;-81
2023/10/20 11:20:27;;;;;;;9.38;2.88;;;;;;;14.28;100.00;90072.91;6306643;22;20443;-81
2023/10/20 11:22:54;;;;;;;8.13;2.80;;;;;;;14.20;100.00;90081.88;6307963;22;20603;-80
2023/10/20 11:25:21;;;;;;;7.93;3.20;;;;;;;14.18;100.00;90084.13;6308316;22;20067;-80
2023/10/20 11:27:54;;;;;;;8.75;3.20;;;;;;;14.22;100.00;90090.16;6256579;22;20003;-81
2023/10/20 11:30:27;;;;;;;9.35;3.03;;;;;;;14.15;100.00;90113.81;6310558;22;20344;-81
2023/10/20 11:32:53;;;;;;;8.75;3.20;;;;;;;14.08;100.00;90101.34;6311147;22;20011;-81
2023/10/20 11:35:28;;;;;;;10.02;2.53;;;;;;;13.99;100.00;90097.53;6310854;22;20003;-81
2023/10/20 11:37:55;;;;;;;7.63;2.40;;;;;;;14.05;100.00;90091.56;6310852;22;20035;-81
2023/10/20 11:40:21;;;;;;;10.15;2.75;;;;;;;13.98;100.00;90111.78;6283469;22;20349;-81
2023/10/20 11:42:50;;;;;;;9.77;3.10;;;;;;;14.05;100.00;90043.44;6282397;22;20007;-81
2023/10/20 11:45:16;;;;;;;9.90;3.30;;;;;;;14.12;100.00;90064.56;6311185;22;20402;-80
2023/10/20 11:47:42;;;;;;;4.82;2.08;;;;;;;14.18;100.00;90072.84;6283606;22;20053;-82
2023/10/20 11:50:10;;;;;;;11.23;2.78;;;;;;;14.20;100.00;90047.69;6311087;22;20002;-81
2023/10/20 11:52:40;;;;;;;10.13;3.22;;;;;;;14.16;100.00;90081.09;6312052;22;20004;-81
2023/10/20 11:55:06;;;;;;;9.73;3.53;;;;;;;14.02;100.00;90089.66;6310580;22;20016;-81
2023/10/20 11:57:32;;;;;;;9.25;2.83;;;;;;;13.98;100.00;90091.50;6310643;22;19995;-81
2023/10/20 11:59:58;;;;;;;11.85;2.75;;;;;;;13.88;100.00;90061.38;6282623;22;20015;-81
2023/10/20 12:02:24;;;;;;;17.27;3.80;;;;;;;13.77;100.00;90086.09;6309631;22;20003;-80
2023/10/20 12:04:50;;;;;;;6.68;3.13;;;;;;;13.77;100.00;90057.91;6281309;22;20148;-79
2023/10/20 12:07:15;;;;;;;7.75;2.88;;;;;;;13.82;100.00;90051.56;6310034;22;20003;-80
2023/10/20 12:09:41;;;;;;;9.70;3.13;;;;;;;13.79;100.00;90029.38;6308287;22;20022;-80
2023/10/20 12:12:08;;;;;;;24.52;4.75;;;;;;;13.75;100.00;90047.75;6309285;22;20011;-82
2023/10/20 12:14:34;;;;;;;14.25;3.50;;;;;;;13.78;100.00;90027.09;6312481;22;20015;-81
2023/10/20 12:16:59;;;;;;;10.73;3.50;;;;;;;13.68;100.00;90039.06;6310690;22;20022;-81
2023/10/20 12:19:25;;;;;;;5.50;2.33;;;;;;;13.71;100.00;90052.25;6312396;22;20022;-80
2023/10/20 12:21:51;;;;;;;4.85;2.13;;;;;;;13.70;100.00;90034.19;6282672;22;20070;-79